Startpagina
METAR-TAF:

METAR-TAF

Vliegvelden :

Manta, Ecuador

breedte: 00-57S, lengte: 080-41W, hoogte: 13 m

Actueel weer

Dit bericht is 11 uur en het 56 minuten geleden gemaakt, om 00:00 UTC
Wind 11 kt uit het zuidzuidwesten
Temperatuur 23°C
Vochtigheid 83%
Druk 1012 hPa
Zicht 10 km of meer
Geheel bewolkt op 2000 ft

METAR: SEMT 070000Z 21011KT 9999 OVC020 23/20 Q1012 RMK A2991

Tijdstip: 06:56 (11:56 UTC)

Verwachting

Verwachting geldig van 07 om 09 UTC tot 07 om 15 UTC
Wind 5 kt uit het zuidwesten
Zicht 10 km of meer
Geheel bewolkt op 2000 ft
Wijzigt naar
van 07 om 18 UTC tot 07 om 19 UTC
Wind 10 kt uit het westen
Gebroken wolken op 2300 ft
Wijzigt naar
van 08 om 00 UTC tot 08 om 02 UTC
Wind 4 kt uit het zuidzuidwesten
Geheel bewolkt op 2000 ft

TAF: SEMT 070915 0712/0812 22005KT 9999 OVC020 BECMG 0718/0719 28010KT BKN023 BECMG 0800/0802 20004KT OVC020 TX29/0720Z TN23/0810Z

Waarnemingen en weersverwachtingen van meer dan 4000 vliegvelden (METAR en TAF).

De beschikbare stations zijn de gele en rode punten op de kaart.

Ga met uw muis naar het station om de naam te zien.

Klik dan om waarnemingen en weersverwachtingen te zien.

kaart wijzigen: klik op de groene knoppen met een zwart kruis om in te zoomen, op de groene knop met een streepje om uit te zoomen of op de groene pijlen voor aangrenzende kaarten.


METAR-TAF: